MDT15 ENZV-EIDL
Flight info
| Callsign | MDT15 |
|---|---|
| Flight time | 1h 20m |
| Altitude | 43000 |
| Route | LAPOT P600 KLONN DCT MAC/N0452F240 N552 RUBEX DCT CFN |
| Aircraft | C700/M-SBDGHM1RWXY/LB2 |
Departure
| Time | 2026-05-07 20:04 |
|---|---|
| Airport | Stavanger Airport, Sola (ENZV) |
Arrival
| Time | 2026-05-07 21:24 |
|---|---|
| Airport | Donegal Airport (EIDL) |
| Time | Latitude | Longitude | Altitude | Speed | Heading |
|---|---|---|---|---|---|
| 2026-05-07 19:51 | 58.88637 | 5.63308 | 25 ft | 0 kts | 323° |
| 2026-05-07 20:02 | 58.88641 | 5.63310 | 25 ft | 1 kts | 16° |
| 2026-05-07 20:02 | 58.88656 | 5.63384 | 25 ft | 13 kts | 62° |
| 2026-05-07 20:03 | 58.88707 | 5.63499 | 26 ft | 10 kts | 81° |
| 2026-05-07 20:03 | 58.88709 | 5.63579 | 24 ft | 0 kts | 88° |
| 2026-05-07 20:03 | 58.88710 | 5.63669 | 22 ft | 11 kts | 89° |
| 2026-05-07 20:03 | 58.88684 | 5.63754 | 22 ft | 0 kts | 178° |
| 2026-05-07 20:04 | 58.88531 | 5.63759 | 24 ft | 63 kts | 179° |
| 2026-05-07 20:04 | 58.87796 | 5.63758 | 51 ft | 143 kts | 182° |
| 2026-05-07 20:04 | 58.86668 | 5.63740 | 645 ft | 177 kts | 180° |
| 2026-05-07 20:04 | 58.85347 | 5.63827 | 1656 ft | 200 kts | 177° |
| 2026-05-07 20:05 | 58.83908 | 5.63915 | 2951 ft | 213 kts | 178° |
| 2026-05-07 20:05 | 58.82344 | 5.63934 | 4078 ft | 238 kts | 183° |
| 2026-05-07 20:05 | 58.80840 | 5.62667 | 5531 ft | 250 kts | 221° |
| 2026-05-07 20:05 | 58.80000 | 5.59698 | 7154 ft | 259 kts | 251° |
| 2026-05-07 20:06 | 58.79601 | 5.56292 | 8799 ft | 262 kts | 255° |
| 2026-05-07 20:06 | 58.79187 | 5.52858 | 10501 ft | 265 kts | 253° |
| 2026-05-07 20:06 | 58.78667 | 5.49253 | 11650 ft | 292 kts | 252° |
| 2026-05-07 20:06 | 58.78104 | 5.45429 | 13250 ft | 299 kts | 253° |
| 2026-05-07 20:07 | 58.77551 | 5.41508 | 14801 ft | 307 kts | 254° |
| 2026-05-07 20:07 | 58.76990 | 5.37509 | 16332 ft | 311 kts | 253° |
| 2026-05-07 20:07 | 58.76411 | 5.33454 | 17777 ft | 317 kts | 253° |
| 2026-05-07 20:07 | 58.75816 | 5.29314 | 19001 ft | 323 kts | 253° |
| 2026-05-07 20:08 | 58.75213 | 5.25108 | 20013 ft | 329 kts | 254° |
| 2026-05-07 20:08 | 58.74598 | 5.20820 | 20971 ft | 335 kts | 254° |
| 2026-05-07 20:08 | 58.73968 | 5.16453 | 21929 ft | 340 kts | 254° |
| 2026-05-07 20:08 | 58.73329 | 5.12035 | 22883 ft | 346 kts | 255° |
| 2026-05-07 20:09 | 58.72685 | 5.07594 | 23789 ft | 351 kts | 255° |
| 2026-05-07 20:09 | 58.72022 | 5.03032 | 24588 ft | 356 kts | 254° |
| 2026-05-07 20:09 | 58.71350 | 4.98426 | 25418 ft | 359 kts | 254° |
| 2026-05-07 20:10 | 58.69980 | 4.89071 | 27018 ft | 367 kts | 254° |
| 2026-05-07 20:10 | 58.69280 | 4.84307 | 27805 ft | 371 kts | 253° |
| 2026-05-07 20:10 | 58.68570 | 4.79496 | 28571 ft | 375 kts | 253° |
| 2026-05-07 20:10 | 58.67853 | 4.74646 | 29335 ft | 380 kts | 253° |
| 2026-05-07 20:11 | 58.67125 | 4.69740 | 30088 ft | 384 kts | 253° |
| 2026-05-07 20:11 | 58.66398 | 4.64852 | 30717 ft | 388 kts | 253° |
| 2026-05-07 20:11 | 58.65651 | 4.59850 | 31330 ft | 391 kts | 253° |
| 2026-05-07 20:11 | 58.64895 | 4.54801 | 31934 ft | 395 kts | 252° |
| 2026-05-07 20:12 | 58.64131 | 4.49712 | 32520 ft | 398 kts | 252° |
| 2026-05-07 20:12 | 58.63359 | 4.44592 | 33069 ft | 401 kts | 252° |
| 2026-05-07 20:12 | 58.62593 | 4.39424 | 33738 ft | 401 kts | 253° |
| 2026-05-07 20:12 | 58.61867 | 4.34270 | 34455 ft | 399 kts | 253° |
| 2026-05-07 20:13 | 58.61141 | 4.29129 | 34981 ft | 400 kts | 253° |
| 2026-05-07 20:13 | 58.60389 | 4.23985 | 35508 ft | 400 kts | 252° |
| 2026-05-07 20:13 | 58.59631 | 4.18835 | 36018 ft | 401 kts | 253° |
| 2026-05-07 20:13 | 58.58891 | 4.13745 | 36502 ft | 402 kts | 253° |
| 2026-05-07 20:14 | 58.58140 | 4.08572 | 36966 ft | 402 kts | 253° |
| 2026-05-07 20:14 | 58.57382 | 4.03408 | 37419 ft | 403 kts | 253° |
| 2026-05-07 20:14 | 58.56617 | 3.98229 | 37864 ft | 403 kts | 253° |
| 2026-05-07 20:14 | 58.55852 | 3.93051 | 38290 ft | 404 kts | 253° |
| 2026-05-07 20:15 | 58.55086 | 3.87870 | 38709 ft | 404 kts | 253° |
| 2026-05-07 20:15 | 58.54317 | 3.82686 | 39022 ft | 405 kts | 253° |
| 2026-05-07 20:15 | 58.53541 | 3.77488 | 39317 ft | 405 kts | 253° |
| 2026-05-07 20:15 | 58.52764 | 3.72297 | 39597 ft | 406 kts | 253° |
| 2026-05-07 20:16 | 58.51994 | 3.67157 | 39878 ft | 407 kts | 253° |
| 2026-05-07 20:16 | 58.51211 | 3.61953 | 40152 ft | 407 kts | 253° |
| 2026-05-07 20:16 | 58.50424 | 3.56741 | 40430 ft | 408 kts | 253° |
| 2026-05-07 20:16 | 58.49634 | 3.51525 | 40698 ft | 409 kts | 253° |
| 2026-05-07 20:17 | 58.48842 | 3.46304 | 40958 ft | 409 kts | 253° |
| 2026-05-07 20:17 | 58.48045 | 3.41075 | 41224 ft | 410 kts | 252° |
| 2026-05-07 20:17 | 58.47244 | 3.35836 | 41467 ft | 411 kts | 253° |
| 2026-05-07 20:17 | 58.46442 | 3.30603 | 41723 ft | 411 kts | 253° |
| 2026-05-07 20:18 | 58.45635 | 3.25351 | 41966 ft | 412 kts | 252° |
| 2026-05-07 20:18 | 58.44824 | 3.20098 | 42207 ft | 412 kts | 252° |
| 2026-05-07 20:18 | 58.44012 | 3.14851 | 42446 ft | 413 kts | 252° |
| 2026-05-07 20:18 | 58.43196 | 3.09592 | 42679 ft | 413 kts | 252° |
| 2026-05-07 20:19 | 58.42377 | 3.04332 | 42904 ft | 414 kts | 252° |
| 2026-05-07 20:19 | 58.41554 | 2.99063 | 43106 ft | 415 kts | 252° |
| 2026-05-07 20:19 | 58.40721 | 2.93748 | 43096 ft | 421 kts | 252° |
| 2026-05-07 20:20 | 58.38916 | 2.82984 | 43112 ft | 431 kts | 246° |
| 2026-05-07 20:20 | 58.36076 | 2.72859 | 43104 ft | 442 kts | 241° |
| 2026-05-07 20:21 | 58.33070 | 2.62490 | 43102 ft | 452 kts | 240° |
| 2026-05-07 20:21 | 58.29971 | 2.51983 | 43100 ft | 458 kts | 240° |
| 2026-05-07 20:22 | 58.26874 | 2.41459 | 43100 ft | 455 kts | 240° |
| 2026-05-07 20:22 | 58.23777 | 2.31021 | 43096 ft | 451 kts | 240° |
| 2026-05-07 20:23 | 58.20688 | 2.20639 | 43092 ft | 453 kts | 240° |
| 2026-05-07 20:23 | 58.17563 | 2.10187 | 43086 ft | 457 kts | 240° |
| 2026-05-07 20:24 | 58.14436 | 1.99774 | 43081 ft | 456 kts | 240° |
| 2026-05-07 20:24 | 58.11303 | 1.89392 | 43081 ft | 453 kts | 240° |
| 2026-05-07 20:25 | 58.08178 | 1.79078 | 43071 ft | 452 kts | 240° |
| 2026-05-07 20:25 | 58.05033 | 1.68745 | 43075 ft | 456 kts | 240° |
| 2026-05-07 20:26 | 58.01853 | 1.58342 | 43078 ft | 458 kts | 239° |
| 2026-05-07 20:26 | 57.98675 | 1.47993 | 43074 ft | 454 kts | 239° |
| 2026-05-07 20:27 | 57.95512 | 1.37736 | 43065 ft | 451 kts | 239° |
| 2026-05-07 20:27 | 57.92346 | 1.27516 | 43063 ft | 453 kts | 239° |
| 2026-05-07 20:28 | 57.89151 | 1.17249 | 43063 ft | 455 kts | 239° |
| 2026-05-07 20:28 | 57.85961 | 1.07039 | 43062 ft | 456 kts | 239° |
| 2026-05-07 20:29 | 57.82746 | 0.96794 | 43056 ft | 453 kts | 239° |
| 2026-05-07 20:29 | 57.79544 | 0.86638 | 43052 ft | 450 kts | 239° |
| 2026-05-07 20:30 | 57.76344 | 0.76528 | 43042 ft | 452 kts | 239° |
| 2026-05-07 20:30 | 57.73118 | 0.66382 | 43042 ft | 454 kts | 239° |
| 2026-05-07 20:31 | 57.69898 | 0.56296 | 43043 ft | 454 kts | 238° |
| 2026-05-07 20:31 | 57.66651 | 0.46170 | 43042 ft | 453 kts | 238° |
| 2026-05-07 20:32 | 57.63408 | 0.36101 | 43034 ft | 451 kts | 238° |
| 2026-05-07 20:32 | 57.60716 | 0.27773 | 43031 ft | 451 kts | 238° |
| 2026-05-07 20:33 | 57.56930 | 0.16112 | 43029 ft | 453 kts | 238° |
| 2026-05-07 20:33 | 57.53659 | 0.06084 | 43025 ft | 453 kts | 238° |
| 2026-05-07 20:34 | 57.50911 | -0.02310 | 43023 ft | 453 kts | 238° |
| 2026-05-07 20:34 | 57.47648 | -0.12238 | 43025 ft | 452 kts | 238° |
| 2026-05-07 20:35 | 57.44363 | -0.22192 | 43018 ft | 452 kts | 238° |
| 2026-05-07 20:35 | 57.41064 | -0.32145 | 43015 ft | 454 kts | 238° |
| 2026-05-07 20:36 | 57.37733 | -0.42155 | 43012 ft | 456 kts | 238° |
| 2026-05-07 20:36 | 57.34389 | -0.52158 | 43006 ft | 455 kts | 238° |
| 2026-05-07 20:37 | 57.31042 | -0.62131 | 43006 ft | 454 kts | 238° |
| 2026-05-07 20:37 | 57.27718 | -0.71992 | 42999 ft | 455 kts | 237° |
| 2026-05-07 20:38 | 57.24365 | -0.81901 | 42996 ft | 455 kts | 237° |
| 2026-05-07 20:38 | 57.20996 | -0.91813 | 42992 ft | 456 kts | 237° |
| 2026-05-07 20:39 | 57.17613 | -1.01728 | 42990 ft | 457 kts | 237° |
| 2026-05-07 20:39 | 57.14223 | -1.11622 | 42988 ft | 456 kts | 237° |
| 2026-05-07 20:40 | 57.10834 | -1.21474 | 42987 ft | 455 kts | 237° |
| 2026-05-07 20:40 | 57.07439 | -1.31299 | 42979 ft | 454 kts | 237° |
| 2026-05-07 20:41 | 57.04070 | -1.41012 | 42977 ft | 453 kts | 237° |
| 2026-05-07 20:41 | 57.00678 | -1.50750 | 42973 ft | 452 kts | 237° |
| 2026-05-07 20:42 | 56.97281 | -1.60463 | 42969 ft | 453 kts | 237° |
| 2026-05-07 20:42 | 56.93860 | -1.70207 | 42971 ft | 455 kts | 237° |
| 2026-05-07 20:43 | 56.90419 | -1.79967 | 42968 ft | 457 kts | 237° |
| 2026-05-07 20:43 | 56.86990 | -1.89655 | 42966 ft | 456 kts | 236° |
| 2026-05-07 20:44 | 56.83549 | -1.99335 | 42962 ft | 453 kts | 236° |
| 2026-05-07 20:44 | 56.80113 | -2.08967 | 42953 ft | 452 kts | 236° |
| 2026-05-07 20:45 | 56.76658 | -2.18607 | 42955 ft | 455 kts | 236° |
| 2026-05-07 20:45 | 56.73183 | -2.28272 | 42958 ft | 457 kts | 236° |
| 2026-05-07 20:46 | 56.69688 | -2.37949 | 42960 ft | 456 kts | 236° |
| 2026-05-07 20:46 | 56.66223 | -2.47504 | 42953 ft | 453 kts | 236° |
| 2026-05-07 20:47 | 56.62753 | -2.57039 | 42949 ft | 452 kts | 236° |
| 2026-05-07 20:47 | 56.59271 | -2.66564 | 42944 ft | 454 kts | 236° |
| 2026-05-07 20:48 | 56.55767 | -2.76116 | 42942 ft | 456 kts | 236° |
| 2026-05-07 20:48 | 56.52238 | -2.85698 | 42947 ft | 458 kts | 236° |
| 2026-05-07 20:49 | 56.48687 | -2.95300 | 42946 ft | 458 kts | 236° |
| 2026-05-07 20:49 | 56.45146 | -3.04837 | 42944 ft | 455 kts | 236° |
| 2026-05-07 20:50 | 56.41617 | -3.14308 | 42941 ft | 453 kts | 236° |
| 2026-05-07 20:50 | 56.38096 | -3.23716 | 42936 ft | 456 kts | 236° |
| 2026-05-07 20:51 | 56.34528 | -3.33216 | 42939 ft | 459 kts | 236° |
| 2026-05-07 20:51 | 56.30926 | -3.42767 | 42947 ft | 459 kts | 236° |
| 2026-05-07 20:52 | 56.27339 | -3.52244 | 42945 ft | 457 kts | 235° |
| 2026-05-07 20:52 | 56.23763 | -3.61653 | 42945 ft | 454 kts | 235° |
| 2026-05-07 20:53 | 56.20201 | -3.70990 | 42944 ft | 457 kts | 235° |
| 2026-05-07 20:53 | 56.16587 | -3.80424 | 42948 ft | 460 kts | 235° |
| 2026-05-07 20:54 | 56.12955 | -3.89871 | 42948 ft | 459 kts | 235° |
| 2026-05-07 20:54 | 56.09341 | -3.99236 | 42947 ft | 456 kts | 235° |
| 2026-05-07 20:55 | 56.05734 | -4.08546 | 42948 ft | 455 kts | 235° |
| 2026-05-07 20:55 | 56.02112 | -4.17859 | 42954 ft | 458 kts | 235° |
| 2026-05-07 20:56 | 55.98445 | -4.27251 | 42969 ft | 461 kts | 235° |
| 2026-05-07 20:56 | 55.94781 | -4.36601 | 42972 ft | 458 kts | 235° |
| 2026-05-07 20:57 | 55.91156 | -4.45816 | 42969 ft | 455 kts | 234° |
| 2026-05-07 20:57 | 55.87510 | -4.55048 | 42966 ft | 457 kts | 234° |
| 2026-05-07 20:58 | 55.83834 | -4.64322 | 42964 ft | 460 kts | 234° |
| 2026-05-07 20:58 | 55.80125 | -4.73645 | 42519 ft | 463 kts | 234° |
| 2026-05-07 20:58 | 55.78275 | -4.78281 | 41909 ft | 456 kts | 234° |
| 2026-05-07 20:59 | 55.76452 | -4.82843 | 41313 ft | 447 kts | 234° |
| 2026-05-07 20:59 | 55.74665 | -4.87304 | 40726 ft | 439 kts | 234° |
| 2026-05-07 20:59 | 55.72908 | -4.91682 | 40147 ft | 431 kts | 234° |
| 2026-05-07 20:59 | 55.71175 | -4.95991 | 39585 ft | 426 kts | 234° |
| 2026-05-07 21:00 | 55.69481 | -5.00201 | 39035 ft | 423 kts | 234° |
| 2026-05-07 21:00 | 55.67767 | -5.04450 | 38452 ft | 424 kts | 233° |
| 2026-05-07 21:00 | 55.66047 | -5.08705 | 37859 ft | 426 kts | 233° |
| 2026-05-07 21:00 | 55.64316 | -5.12984 | 37297 ft | 429 kts | 233° |
| 2026-05-07 21:01 | 55.62572 | -5.17285 | 36729 ft | 431 kts | 233° |
| 2026-05-07 21:01 | 55.60819 | -5.21601 | 36162 ft | 431 kts | 233° |
| 2026-05-07 21:01 | 55.59077 | -5.25884 | 35594 ft | 428 kts | 233° |
| 2026-05-07 21:01 | 55.57336 | -5.30154 | 35031 ft | 425 kts | 233° |
| 2026-05-07 21:02 | 55.55610 | -5.34382 | 34462 ft | 423 kts | 233° |
| 2026-05-07 21:02 | 55.53896 | -5.38572 | 33902 ft | 420 kts | 232° |
| 2026-05-07 21:02 | 55.52191 | -5.42734 | 33321 ft | 417 kts | 232° |
| 2026-05-07 21:02 | 55.50483 | -5.46895 | 32764 ft | 421 kts | 232° |
| 2026-05-07 21:03 | 55.48755 | -5.51096 | 32208 ft | 425 kts | 232° |
| 2026-05-07 21:03 | 55.47012 | -5.55331 | 31646 ft | 427 kts | 232° |
| 2026-05-07 21:03 | 55.45313 | -5.59622 | 31080 ft | 427 kts | 237° |
| 2026-05-07 21:03 | 55.43932 | -5.64248 | 30517 ft | 428 kts | 244° |
| 2026-05-07 21:04 | 55.42901 | -5.69188 | 29937 ft | 431 kts | 251° |
| 2026-05-07 21:04 | 55.42253 | -5.74337 | 29342 ft | 430 kts | 258° |
| 2026-05-07 21:04 | 55.41847 | -5.79467 | 28785 ft | 425 kts | 259° |
| 2026-05-07 21:04 | 55.41428 | -5.84581 | 28227 ft | 420 kts | 258° |
| 2026-05-07 21:05 | 55.41002 | -5.89645 | 27677 ft | 416 kts | 258° |
| 2026-05-07 21:05 | 55.40588 | -5.94667 | 27122 ft | 413 kts | 259° |
| 2026-05-07 21:05 | 55.40181 | -5.99657 | 26578 ft | 409 kts | 259° |
| 2026-05-07 21:05 | 55.39770 | -6.04597 | 26040 ft | 406 kts | 258° |
| 2026-05-07 21:06 | 55.39357 | -6.09501 | 25509 ft | 404 kts | 258° |
| 2026-05-07 21:06 | 55.38946 | -6.14371 | 24978 ft | 401 kts | 258° |
| 2026-05-07 21:06 | 55.38539 | -6.19203 | 24448 ft | 398 kts | 258° |
| 2026-05-07 21:06 | 55.38133 | -6.23999 | 23926 ft | 395 kts | 258° |
| 2026-05-07 21:07 | 55.37732 | -6.28686 | 23455 ft | 390 kts | 258° |
| 2026-05-07 21:07 | 55.37330 | -6.33376 | 22938 ft | 386 kts | 258° |
| 2026-05-07 21:07 | 55.36929 | -6.38021 | 22433 ft | 383 kts | 258° |
| 2026-05-07 21:07 | 55.36528 | -6.42652 | 21927 ft | 382 kts | 258° |
| 2026-05-07 21:08 | 55.36128 | -6.47253 | 21427 ft | 380 kts | 258° |
| 2026-05-07 21:08 | 55.35730 | -6.51821 | 20927 ft | 377 kts | 258° |
| 2026-05-07 21:08 | 55.35333 | -6.56353 | 20432 ft | 373 kts | 258° |
| 2026-05-07 21:08 | 55.34938 | -6.60836 | 19943 ft | 369 kts | 258° |
| 2026-05-07 21:09 | 55.34544 | -6.65276 | 19456 ft | 367 kts | 258° |
| 2026-05-07 21:09 | 55.34153 | -6.69682 | 18971 ft | 364 kts | 258° |
| 2026-05-07 21:09 | 55.33761 | -6.74070 | 18496 ft | 362 kts | 258° |
| 2026-05-07 21:09 | 55.33372 | -6.78421 | 17992 ft | 359 kts | 258° |
| 2026-05-07 21:10 | 55.32983 | -6.82736 | 17510 ft | 355 kts | 258° |
| 2026-05-07 21:10 | 55.32598 | -6.86997 | 17041 ft | 352 kts | 258° |
| 2026-05-07 21:10 | 55.32214 | -6.91230 | 16581 ft | 351 kts | 258° |
| 2026-05-07 21:10 | 55.31806 | -6.95450 | 16119 ft | 350 kts | 257° |
| 2026-05-07 21:11 | 55.31375 | -6.99598 | 15660 ft | 348 kts | 258° |
| 2026-05-07 21:11 | 55.30957 | -7.03767 | 15204 ft | 345 kts | 258° |
| 2026-05-07 21:11 | 55.30109 | -7.12008 | 14298 ft | 341 kts | 258° |
| 2026-05-07 21:12 | 55.29684 | -7.16089 | 13847 ft | 339 kts | 258° |
| 2026-05-07 21:12 | 55.29262 | -7.20157 | 13377 ft | 337 kts | 258° |
| 2026-05-07 21:12 | 55.28842 | -7.24194 | 12927 ft | 334 kts | 258° |
| 2026-05-07 21:12 | 55.28431 | -7.28123 | 12492 ft | 318 kts | 257° |
| 2026-05-07 21:13 | 55.28043 | -7.31835 | 12085 ft | 301 kts | 257° |
| 2026-05-07 21:13 | 55.27671 | -7.35361 | 11691 ft | 287 kts | 257° |
| 2026-05-07 21:13 | 55.27314 | -7.38732 | 11324 ft | 275 kts | 257° |
| 2026-05-07 21:13 | 55.26971 | -7.41970 | 10964 ft | 266 kts | 257° |
| 2026-05-07 21:14 | 55.26635 | -7.45127 | 10618 ft | 262 kts | 257° |
| 2026-05-07 21:14 | 55.26299 | -7.48272 | 10271 ft | 263 kts | 257° |
| 2026-05-07 21:14 | 55.25961 | -7.51435 | 9928 ft | 265 kts | 256° |
| 2026-05-07 21:14 | 55.25622 | -7.54607 | 9561 ft | 264 kts | 257° |
| 2026-05-07 21:15 | 55.25285 | -7.57757 | 9196 ft | 261 kts | 257° |
| 2026-05-07 21:15 | 55.24955 | -7.60825 | 8864 ft | 258 kts | 257° |
| 2026-05-07 21:15 | 55.24622 | -7.63908 | 8526 ft | 257 kts | 257° |
| 2026-05-07 21:15 | 55.24289 | -7.66981 | 8192 ft | 256 kts | 257° |
| 2026-05-07 21:16 | 55.23956 | -7.70053 | 7851 ft | 256 kts | 257° |
| 2026-05-07 21:16 | 55.23624 | -7.73115 | 7514 ft | 256 kts | 257° |
| 2026-05-07 21:16 | 55.23292 | -7.76163 | 7176 ft | 254 kts | 257° |
| 2026-05-07 21:16 | 55.22962 | -7.79188 | 6842 ft | 251 kts | 257° |
| 2026-05-07 21:17 | 55.22633 | -7.82188 | 6511 ft | 250 kts | 257° |
| 2026-05-07 21:17 | 55.22306 | -7.85165 | 6177 ft | 248 kts | 257° |
| 2026-05-07 21:17 | 55.21980 | -7.88130 | 5841 ft | 247 kts | 257° |
| 2026-05-07 21:17 | 55.21655 | -7.91084 | 5513 ft | 246 kts | 257° |
| 2026-05-07 21:18 | 55.21331 | -7.94018 | 5191 ft | 245 kts | 257° |
| 2026-05-07 21:18 | 55.21007 | -7.96936 | 4863 ft | 244 kts | 257° |
| 2026-05-07 21:18 | 55.20683 | -7.99855 | 4534 ft | 244 kts | 258° |
| 2026-05-07 21:18 | 55.20359 | -8.02774 | 4208 ft | 244 kts | 258° |
| 2026-05-07 21:19 | 55.20036 | -8.05672 | 3962 ft | 240 kts | 259° |
| 2026-05-07 21:19 | 55.19948 | -8.08554 | 3628 ft | 238 kts | 274° |
| 2026-05-07 21:19 | 55.20274 | -8.11307 | 3492 ft | 227 kts | 286° |
| 2026-05-07 21:19 | 55.20787 | -8.13842 | 3346 ft | 215 kts | 282° |
| 2026-05-07 21:20 | 55.20955 | -8.16389 | 3206 ft | 208 kts | 268° |
| 2026-05-07 21:20 | 55.20764 | -8.18891 | 3063 ft | 208 kts | 255° |
| 2026-05-07 21:20 | 55.20227 | -8.21233 | 2921 ft | 205 kts | 242° |
| 2026-05-07 21:20 | 55.19406 | -8.23215 | 2793 ft | 199 kts | 229° |
| 2026-05-07 21:21 | 55.18366 | -8.24762 | 2664 ft | 195 kts | 217° |
| 2026-05-07 21:21 | 55.17159 | -8.25833 | 2535 ft | 195 kts | 204° |
| 2026-05-07 21:21 | 55.16318 | -8.26357 | 2452 ft | 195 kts | 204° |
| 2026-05-07 21:21 | 55.15046 | -8.27193 | 2310 ft | 194 kts | 205° |
| 2026-05-07 21:22 | 55.13769 | -8.28034 | 2048 ft | 200 kts | 204° |
| 2026-05-07 21:22 | 55.12456 | -8.28888 | 1746 ft | 198 kts | 204° |
| 2026-05-07 21:22 | 55.11251 | -8.29660 | 1482 ft | 173 kts | 205° |
| 2026-05-07 21:22 | 55.10140 | -8.30385 | 1228 ft | 170 kts | 205° |
| 2026-05-07 21:23 | 55.09076 | -8.31075 | 1029 ft | 152 kts | 205° |
| 2026-05-07 21:23 | 55.08141 | -8.31680 | 793 ft | 129 kts | 205° |
| 2026-05-07 21:23 | 55.07356 | -8.32161 | 607 ft | 119 kts | 206° |
| 2026-05-07 21:23 | 55.06614 | -8.32664 | 491 ft | 115 kts | 207° |
| 2026-05-07 21:24 | 55.05855 | -8.33162 | 365 ft | 119 kts | 205° |
| 2026-05-07 21:24 | 55.05083 | -8.33674 | 144 ft | 118 kts | 204° |
| 2026-05-07 21:24 | 55.04377 | -8.34132 | 62 ft | 87 kts | 202° |
| 2026-05-07 21:24 | 55.04017 | -8.34365 | 51 ft | 20 kts | 199° |
| 2026-05-07 21:25 | 55.03957 | -8.34395 | 44 ft | 0 kts | 203° |